createdAt,value
2023-05-12T00:00:52.919Z,6.00
2023-05-12T00:03:19.563Z,6.33
2023-05-12T00:05:46.294Z,5.83
2023-05-12T00:08:12.918Z,5.50
2023-05-12T00:10:39.495Z,5.70
2023-05-12T00:13:06.139Z,6.40
2023-05-12T00:15:32.720Z,6.53
2023-05-12T00:17:59.293Z,5.93
2023-05-12T00:20:25.892Z,6.47
2023-05-12T00:22:52.596Z,6.37
2023-05-12T00:25:19.209Z,6.30
2023-05-12T00:27:45.779Z,6.43
2023-05-12T00:30:12.564Z,6.13
2023-05-12T00:32:39.312Z,6.70
2023-05-12T00:35:05.995Z,6.70
2023-05-12T00:37:32.721Z,6.27
2023-05-12T00:39:59.303Z,6.30
2023-05-12T00:42:25.865Z,6.57
2023-05-12T00:44:52.406Z,6.80
2023-05-12T00:47:20.559Z,6.97
2023-05-12T00:49:47.260Z,6.57
2023-05-12T00:52:13.905Z,6.43
2023-05-12T00:54:41.784Z,6.23
2023-05-12T00:57:08.362Z,6.90
2023-05-12T00:59:35.041Z,6.63
2023-05-12T01:02:01.953Z,6.60
2023-05-12T01:04:29.860Z,6.60
2023-05-12T01:06:59.732Z,6.90
2023-05-12T01:09:26.430Z,6.67
2023-05-12T01:11:53.578Z,6.40
2023-05-12T01:14:20.229Z,7.27
2023-05-12T01:16:54.297Z,6.80
2023-05-12T01:19:30.117Z,6.77
2023-05-12T01:21:57.167Z,6.17
2023-05-12T01:24:24.507Z,6.63
2023-05-12T01:26:51.234Z,7.23
2023-05-12T01:29:18.182Z,6.80
2023-05-12T01:31:45.180Z,5.97
2023-05-12T01:34:21.165Z,7.07
2023-05-12T01:36:50.754Z,6.77
2023-05-12T01:39:17.374Z,7.00
2023-05-12T01:41:43.897Z,6.60
2023-05-12T01:44:10.667Z,6.90
2023-05-12T01:46:38.744Z,6.43
2023-05-12T01:49:05.394Z,7.30
2023-05-12T01:51:32.820Z,7.10
2023-05-12T01:53:59.420Z,6.97
2023-05-12T01:56:29.910Z,6.40
2023-05-12T01:58:56.490Z,6.87
2023-05-12T02:01:25.578Z,6.53
2023-05-12T02:03:52.381Z,7.20
2023-05-12T02:06:19.791Z,6.40
2023-05-12T02:08:46.388Z,6.90
2023-05-12T02:11:15.207Z,6.90
2023-05-12T02:13:42.466Z,6.93
2023-05-12T02:16:09.175Z,6.80
2023-05-12T02:18:36.152Z,7.73
2023-05-12T02:21:05.156Z,7.13
2023-05-12T02:23:31.756Z,7.37
2023-05-12T02:25:58.285Z,7.50
2023-05-12T02:28:24.923Z,6.60
2023-05-12T02:30:53.030Z,6.60
2023-05-12T02:33:25.509Z,7.53
2023-05-12T02:35:52.312Z,8.00
2023-05-12T02:38:18.955Z,7.43
2023-05-12T02:40:46.447Z,6.97
2023-05-12T02:43:14.132Z,7.07
2023-05-12T02:45:41.492Z,7.50
2023-05-12T02:48:08.843Z,7.60
2023-05-12T02:50:35.452Z,7.70
2023-05-12T02:53:02.317Z,7.77
2023-05-12T02:55:30.255Z,7.80
2023-05-12T02:57:57.035Z,7.67
2023-05-12T03:00:23.660Z,7.43
2023-05-12T03:02:50.333Z,7.90
2023-05-12T03:05:17.061Z,7.67
2023-05-12T03:07:43.796Z,8.00
2023-05-12T03:10:10.627Z,7.70
2023-05-12T03:12:37.362Z,7.33
2023-05-12T03:15:04.809Z,7.70
2023-05-12T03:17:31.625Z,7.97
2023-05-12T03:19:58.257Z,7.90
2023-05-12T03:22:24.850Z,8.10
2023-05-12T03:24:51.951Z,7.70
2023-05-12T03:27:18.824Z,7.77
2023-05-12T03:29:45.975Z,7.57
2023-05-12T03:32:13.401Z,9.37
2023-05-12T03:34:40.074Z,8.53
2023-05-12T03:37:06.736Z,8.17
2023-05-12T03:39:33.213Z,7.97
2023-05-12T03:42:00.074Z,8.03
2023-05-12T03:44:26.610Z,7.80
2023-05-12T03:46:53.242Z,8.23
2023-05-12T03:49:20.499Z,8.40
2023-05-12T03:51:47.416Z,8.03
2023-05-12T03:54:13.999Z,7.97
2023-05-12T03:56:41.993Z,8.50
2023-05-12T03:59:08.570Z,7.50
2023-05-12T04:01:35.702Z,8.33
2023-05-12T04:04:02.396Z,7.40
2023-05-12T04:06:28.987Z,8.13
2023-05-12T04:08:56.748Z,8.80
2023-05-12T04:11:23.701Z,8.13
2023-05-12T04:13:50.280Z,7.83
2023-05-12T04:16:16.816Z,8.20
2023-05-12T04:18:43.446Z,8.10
2023-05-12T04:21:10.120Z,8.40
2023-05-12T04:23:36.924Z,7.97
2023-05-12T04:26:04.089Z,8.40
2023-05-12T04:28:30.988Z,7.93
2023-05-12T04:31:02.404Z,8.73
2023-05-12T04:33:29.174Z,9.17
2023-05-12T04:35:57.026Z,8.23
2023-05-12T04:38:23.959Z,8.93
2023-05-12T04:40:50.612Z,8.60
2023-05-12T04:45:46.822Z,8.40
2023-05-12T04:48:13.401Z,8.40
2023-05-12T04:50:41.433Z,9.13
2023-05-12T04:53:07.990Z,8.50
2023-05-12T04:55:35.088Z,8.63
2023-05-12T04:58:01.644Z,8.57
2023-05-12T05:00:29.322Z,8.50
2023-05-12T05:02:56.111Z,8.50
2023-05-12T05:05:23.029Z,8.33
2023-05-12T05:07:50.568Z,8.13
2023-05-12T05:10:17.500Z,8.40
2023-05-12T05:12:44.841Z,7.93
2023-05-12T05:15:12.134Z,8.03
2023-05-12T05:17:38.941Z,7.90
2023-05-12T05:20:11.665Z,7.77
2023-05-12T05:22:39.586Z,7.07
2023-05-12T05:25:07.211Z,7.30
2023-05-12T05:27:33.928Z,6.77
2023-05-12T05:30:00.473Z,6.90
2023-05-12T05:32:27.113Z,6.37
2023-05-12T05:34:53.690Z,7.47
2023-05-12T05:37:20.378Z,7.40
2023-05-12T05:39:46.892Z,7.13
2023-05-12T05:42:13.848Z,7.20
2023-05-12T05:44:40.572Z,6.80
2023-05-12T05:47:07.231Z,7.13
2023-05-12T05:49:34.753Z,7.00
2023-05-12T05:52:01.785Z,6.80
2023-05-12T05:54:28.703Z,7.40
2023-05-12T05:56:55.393Z,7.50
2023-05-12T05:59:22.074Z,6.60
2023-05-12T06:01:48.642Z,7.23
2023-05-12T06:04:15.690Z,6.90
2023-05-12T06:06:42.701Z,6.70
2023-05-12T06:09:12.290Z,6.27
2023-05-12T06:11:39.566Z,7.00
2023-05-12T06:14:06.225Z,6.50
2023-05-12T06:16:32.840Z,6.57
2023-05-12T06:18:59.420Z,6.10
2023-05-12T06:21:26.120Z,6.30
2023-05-12T06:23:52.630Z,6.27
2023-05-12T06:26:19.185Z,6.07
2023-05-12T06:28:45.730Z,6.43
2023-05-12T06:31:12.247Z,6.43
2023-05-12T06:33:39.367Z,6.40
2023-05-12T06:36:06.110Z,6.30
2023-05-12T06:38:32.895Z,6.40
2023-05-12T06:40:59.433Z,6.10
2023-05-12T06:43:26.808Z,6.53
2023-05-12T06:45:56.711Z,6.07
2023-05-12T06:48:24.247Z,6.13
2023-05-12T06:50:50.841Z,6.30
2023-05-12T06:53:18.126Z,6.23
2023-05-12T06:55:46.386Z,6.60
2023-05-12T06:58:12.945Z,6.33
2023-05-12T07:00:39.825Z,6.50
2023-05-12T07:03:10.173Z,6.27
2023-05-12T07:05:37.160Z,6.43
2023-05-12T07:08:04.039Z,6.17
2023-05-12T07:10:30.882Z,6.73
2023-05-12T07:12:57.441Z,5.90
2023-05-12T07:15:24.094Z,6.03
2023-05-12T07:17:50.714Z,5.40
2023-05-12T07:20:18.067Z,5.10
2023-05-12T07:22:44.684Z,5.23
2023-05-12T07:25:11.645Z,5.10
2023-05-12T07:27:38.187Z,5.07
2023-05-12T07:30:06.022Z,4.53
2023-05-12T07:32:32.632Z,4.50
2023-05-12T07:34:59.368Z,4.40
2023-05-12T07:37:26.210Z,5.17
2023-05-12T07:39:52.732Z,5.00
2023-05-12T07:42:19.293Z,4.50
2023-05-12T07:44:45.845Z,4.47
2023-05-12T07:47:12.431Z,5.00
2023-05-12T07:49:39.050Z,4.23
2023-05-12T07:52:05.612Z,4.70
2023-05-12T07:54:32.506Z,4.77
2023-05-12T07:56:59.060Z,4.30
2023-05-12T07:59:25.668Z,4.33
2023-05-12T08:01:54.081Z,4.73
2023-05-12T08:04:20.877Z,4.30
2023-05-12T08:06:47.445Z,4.30
2023-05-12T08:09:14.024Z,4.70
2023-05-12T08:11:40.600Z,3.90
2023-05-12T08:14:07.236Z,4.27
2023-05-12T08:16:33.742Z,4.00
2023-05-12T08:19:00.568Z,4.43
2023-05-12T08:21:28.732Z,3.97
2023-05-12T08:23:55.471Z,3.93
2023-05-12T08:26:22.562Z,4.20
2023-05-12T08:28:49.061Z,3.73
2023-05-12T08:31:15.794Z,3.73
2023-05-12T08:33:42.352Z,4.07
2023-05-12T08:36:08.943Z,3.70
2023-05-12T08:38:35.557Z,3.60
2023-05-12T08:41:11.199Z,3.77
2023-05-12T08:43:38.657Z,3.60
2023-05-12T08:46:06.279Z,4.00
2023-05-12T08:48:34.026Z,3.80
2023-05-12T08:51:00.921Z,3.87
2023-05-12T08:53:28.012Z,3.37
2023-05-12T08:57:09.582Z,3.53
2023-05-12T08:58:42.822Z,3.40
2023-05-12T09:01:11.612Z,3.20
2023-05-12T09:03:39.001Z,3.80
2023-05-12T09:06:06.164Z,3.17
2023-05-12T09:08:33.988Z,3.50
2023-05-12T09:11:01.114Z,3.30
2023-05-12T09:13:46.238Z,3.70
2023-05-12T09:16:13.231Z,2.97
2023-05-12T09:18:45.915Z,3.10
2023-05-12T09:21:12.767Z,3.20
2023-05-12T09:23:39.359Z,3.17
2023-05-12T09:26:06.001Z,2.97
2023-05-12T09:28:36.677Z,2.97
2023-05-12T09:31:14.735Z,3.13
2023-05-12T09:33:41.425Z,3.63
2023-05-12T09:36:08.505Z,3.10
2023-05-12T09:38:35.013Z,3.20
2023-05-12T09:41:01.558Z,3.03
2023-05-12T09:43:28.195Z,3.47
2023-05-12T09:45:55.627Z,3.30
2023-05-12T09:48:22.324Z,3.50
2023-05-12T09:50:50.479Z,3.50
2023-05-12T09:53:18.335Z,3.40
2023-05-12T09:55:45.946Z,3.63
2023-05-12T09:58:14.557Z,3.50
2023-05-12T10:03:17.562Z,3.70
2023-05-12T10:05:53.334Z,4.07
2023-05-12T10:08:32.162Z,3.70
2023-05-12T10:10:59.586Z,4.07
2023-05-12T10:13:26.478Z,3.67
2023-05-12T10:15:55.680Z,4.13
2023-05-12T10:18:22.710Z,3.80
2023-05-12T10:20:51.264Z,3.57
2023-05-12T10:23:18.760Z,3.80
2023-05-12T10:25:45.577Z,3.90
2023-05-12T10:28:12.727Z,4.30
2023-05-12T10:30:39.906Z,4.03
2023-05-12T10:33:08.718Z,3.67
2023-05-12T10:35:36.151Z,3.80
2023-05-12T10:38:06.172Z,4.20
2023-05-12T10:40:32.718Z,4.30
2023-05-12T10:43:00.833Z,4.27
2023-05-12T10:45:27.834Z,4.17
2023-05-12T10:48:04.636Z,3.70
2023-05-12T10:50:31.208Z,3.67
2023-05-12T10:52:57.974Z,3.83
2023-05-12T10:55:52.275Z,3.97
2023-05-12T10:58:19.501Z,4.10
2023-05-12T11:00:51.734Z,4.43
2023-05-12T11:03:25.167Z,4.30
2023-05-12T11:05:59.248Z,4.20
2023-05-12T11:08:26.690Z,3.93
2023-05-12T11:10:53.815Z,4.20
2023-05-12T11:13:21.362Z,4.30
2023-05-12T11:15:48.270Z,4.10
2023-05-12T11:18:20.259Z,3.80
2023-05-12T11:20:47.008Z,4.07
2023-05-12T11:23:25.094Z,4.30
2023-05-12T11:25:51.797Z,4.20
2023-05-12T11:28:18.362Z,4.00
2023-05-12T11:30:54.960Z,3.80
2023-05-12T11:33:22.846Z,3.97
2023-05-12T11:35:49.722Z,4.10
2023-05-12T11:38:17.466Z,3.77
2023-05-12T11:40:44.223Z,4.40
2023-05-12T11:43:11.046Z,4.30
2023-05-12T11:45:37.693Z,4.13
2023-05-12T11:48:07.792Z,3.73
2023-05-12T11:50:36.868Z,4.17
2023-05-12T11:53:03.424Z,4.00
2023-05-12T11:55:30.838Z,4.10
2023-05-12T11:57:58.784Z,3.50
2023-05-12T12:00:35.138Z,3.07
2023-05-12T12:03:15.286Z,3.60
2023-05-12T12:05:43.234Z,3.07
2023-05-12T12:08:14.634Z,3.33
2023-05-12T12:10:44.914Z,3.53
2023-05-12T12:13:11.680Z,3.17
2023-05-12T12:15:38.235Z,3.27
2023-05-12T12:18:04.922Z,3.87
2023-05-12T12:20:31.517Z,3.20
2023-05-12T12:22:58.073Z,3.10
2023-05-12T12:25:24.725Z,3.20
2023-05-12T12:27:52.915Z,2.83
2023-05-12T12:30:19.514Z,2.80
2023-05-12T12:32:46.224Z,3.17
2023-05-12T12:35:13.521Z,2.70
2023-05-12T12:37:40.821Z,2.80
2023-05-12T12:40:08.327Z,2.77
2023-05-12T12:42:36.069Z,2.80
2023-05-12T12:45:03.595Z,3.50
2023-05-12T12:47:30.232Z,3.00
2023-05-12T12:49:57.132Z,3.20
2023-05-12T12:52:23.704Z,2.53
2023-05-12T12:54:50.202Z,2.97
2023-05-12T12:57:17.275Z,2.70
2023-05-12T12:59:43.778Z,2.97
2023-05-12T13:02:10.399Z,3.07
2023-05-12T13:04:37.075Z,2.80
2023-05-12T13:07:03.615Z,2.70
2023-05-12T13:09:30.148Z,2.80
2023-05-12T13:11:56.809Z,2.73
2023-05-12T13:14:24.316Z,3.00
2023-05-12T13:16:52.855Z,2.80
2023-05-12T13:19:19.516Z,2.80
2023-05-12T13:21:46.104Z,2.63
2023-05-12T13:24:12.662Z,2.47
2023-05-12T13:26:39.251Z,2.90
2023-05-12T13:29:05.832Z,2.63
2023-05-12T13:31:32.400Z,2.73
2023-05-12T13:33:58.946Z,2.70
2023-05-12T13:36:25.466Z,2.43
2023-05-12T13:38:51.989Z,2.63
2023-05-12T13:41:18.511Z,2.30
2023-05-12T13:43:45.200Z,2.57
2023-05-12T13:46:11.719Z,2.20
2023-05-12T13:48:38.314Z,3.17
2023-05-12T13:51:04.970Z,2.87
2023-05-12T13:53:32.202Z,2.70
2023-05-12T13:56:14.226Z,2.70
2023-05-12T13:58:40.845Z,2.80
2023-05-12T14:01:08.793Z,2.60
2023-05-12T14:03:36.956Z,2.80
2023-05-12T14:06:04.051Z,2.70
2023-05-12T14:08:30.742Z,2.73
2023-05-12T14:10:57.474Z,2.33
2023-05-12T14:13:26.731Z,2.73
2023-05-12T14:15:53.894Z,2.50
2023-05-12T14:18:20.914Z,2.30
2023-05-12T14:20:47.759Z,2.50
2023-05-12T14:23:14.342Z,2.43
2023-05-12T14:25:41.139Z,2.33
2023-05-12T14:28:07.889Z,2.27
2023-05-12T14:30:37.513Z,2.60
2023-05-12T14:33:04.331Z,2.63
2023-05-12T14:35:30.961Z,2.60
2023-05-12T14:37:57.911Z,2.50
2023-05-12T14:40:24.762Z,2.53
2023-05-12T14:42:51.353Z,2.30
2023-05-12T14:45:18.208Z,2.40
2023-05-12T14:47:44.925Z,2.30
2023-05-12T14:50:11.733Z,2.40
2023-05-12T14:52:38.663Z,2.17
2023-05-12T14:55:11.868Z,2.33
2023-05-12T14:57:39.103Z,2.30
2023-05-12T15:00:10.863Z,2.70
2023-05-12T15:02:37.767Z,2.40
2023-05-12T15:05:04.790Z,2.30
2023-05-12T15:07:31.594Z,2.50
2023-05-12T15:09:58.151Z,2.50
2023-05-12T15:12:24.859Z,2.50
2023-05-12T15:14:51.421Z,2.50
2023-05-12T15:17:18.945Z,2.30
2023-05-12T15:19:45.590Z,2.60
2023-05-12T15:22:12.178Z,2.40
2023-05-12T15:24:38.721Z,2.40
2023-05-12T15:27:05.518Z,2.40
2023-05-12T15:29:32.646Z,2.50
2023-05-12T15:31:59.257Z,2.47
2023-05-12T15:34:25.780Z,2.47
2023-05-12T15:36:52.660Z,2.30
2023-05-12T15:39:21.034Z,2.27
2023-05-12T15:41:50.356Z,2.90
2023-05-12T15:44:16.919Z,2.47
2023-05-12T15:46:43.825Z,2.47
2023-05-12T15:49:10.530Z,2.47
2023-05-12T15:51:37.090Z,2.40
2023-05-12T15:54:04.213Z,2.47
2023-05-12T15:56:30.747Z,2.40
2023-05-12T15:58:57.350Z,2.60
2023-05-12T16:01:24.431Z,2.33
2023-05-12T16:03:51.500Z,2.40
2023-05-12T16:06:18.069Z,2.60
2023-05-12T16:08:44.642Z,2.27
2023-05-12T16:11:12.516Z,2.20
2023-05-12T16:13:39.149Z,2.30
2023-05-12T16:16:06.255Z,2.50
2023-05-12T16:18:32.798Z,2.50
2023-05-12T16:20:59.469Z,2.40
2023-05-12T16:23:26.032Z,2.53
2023-05-12T16:25:52.542Z,2.10
2023-05-12T16:28:19.056Z,2.20
2023-05-12T16:30:45.750Z,2.47
2023-05-12T16:33:12.836Z,2.37
2023-05-12T16:35:39.496Z,2.20
2023-05-12T16:38:06.081Z,2.10
2023-05-12T16:40:32.607Z,2.27
2023-05-12T16:42:59.100Z,2.43
2023-05-12T16:45:25.672Z,2.23
2023-05-12T16:47:52.312Z,2.23
2023-05-12T16:50:18.857Z,2.30
2023-05-12T16:52:45.492Z,2.43
2023-05-12T16:55:12.176Z,2.50
2023-05-12T16:57:40.382Z,2.57
2023-05-12T17:00:09.567Z,2.73
2023-05-12T17:02:36.283Z,2.40
2023-05-12T17:05:02.835Z,2.40
2023-05-12T17:07:29.373Z,2.70
2023-05-12T17:09:55.907Z,2.57
2023-05-12T17:12:22.457Z,2.43
2023-05-12T17:14:59.339Z,2.60
2023-05-12T17:17:30.605Z,2.40
2023-05-12T17:19:57.241Z,2.50
2023-05-12T17:22:23.860Z,2.37
2023-05-12T17:24:51.294Z,2.27
2023-05-12T17:27:17.825Z,2.57
2023-05-12T17:29:44.343Z,2.30
2023-05-12T17:32:10.936Z,2.70
2023-05-12T17:34:37.426Z,2.60
2023-05-12T17:37:06.047Z,2.40
2023-05-12T17:39:32.989Z,2.23
2023-05-12T17:42:00.185Z,2.27
2023-05-12T17:44:26.917Z,2.60
2023-05-12T17:46:53.687Z,2.50
2023-05-12T17:49:20.262Z,2.60
2023-05-12T17:51:46.958Z,2.53
2023-05-12T17:54:13.546Z,2.30
2023-05-12T17:56:40.123Z,2.77
2023-05-12T17:59:06.942Z,2.43
2023-05-12T18:01:33.551Z,2.70
2023-05-12T18:04:00.071Z,2.60
2023-05-12T18:06:26.841Z,2.60
2023-05-12T18:08:53.521Z,2.63
2023-05-12T18:11:20.150Z,2.80
2023-05-12T18:13:46.674Z,2.40
2023-05-12T18:16:25.230Z,2.80
2023-05-12T18:18:55.556Z,2.60
2023-05-12T18:21:22.241Z,3.00
2023-05-12T18:23:48.756Z,2.70
2023-05-12T18:26:15.455Z,2.53
2023-05-12T18:28:42.349Z,2.80
2023-05-12T18:31:15.799Z,2.70
2023-05-12T18:33:42.691Z,2.70
2023-05-12T18:36:10.195Z,2.50
2023-05-12T18:38:36.780Z,2.80
2023-05-12T18:41:03.386Z,2.70
2023-05-12T18:43:29.965Z,2.70
2023-05-12T18:45:56.649Z,2.87
2023-05-12T18:48:23.413Z,2.73
2023-05-12T18:50:49.995Z,2.80
2023-05-12T18:53:16.507Z,2.60
2023-05-12T18:55:43.227Z,2.87
2023-05-12T18:58:09.870Z,2.80
2023-05-12T19:00:36.458Z,2.80
2023-05-12T19:03:03.173Z,2.77
2023-05-12T19:05:29.912Z,2.80
2023-05-12T19:07:57.011Z,2.80
2023-05-12T19:10:23.784Z,2.93
2023-05-12T19:12:51.057Z,3.03
2023-05-12T19:15:17.906Z,3.20
2023-05-12T19:17:44.674Z,3.80
2023-05-12T19:20:11.342Z,3.70
2023-05-12T19:22:38.014Z,4.77
2023-05-12T19:25:05.296Z,5.23
2023-05-12T19:27:31.934Z,5.60
2023-05-12T19:29:59.047Z,7.23
2023-05-12T19:32:25.595Z,7.30
2023-05-12T19:34:52.201Z,7.50
2023-05-12T19:37:19.375Z,7.47
2023-05-12T19:39:46.144Z,7.47
2023-05-12T19:42:12.723Z,7.50
2023-05-12T19:44:39.250Z,7.10
2023-05-12T19:47:05.904Z,7.27
2023-05-12T19:49:33.715Z,6.93
2023-05-12T19:52:00.747Z,7.00
2023-05-12T19:54:27.333Z,6.83
2023-05-12T19:56:53.894Z,6.60
2023-05-12T19:59:20.679Z,6.73
2023-05-12T20:01:47.438Z,6.33
2023-05-12T20:04:14.140Z,5.57
2023-05-12T20:06:42.219Z,5.40
2023-05-12T20:09:09.280Z,5.23
2023-05-12T20:11:35.873Z,5.17
2023-05-12T20:14:02.420Z,4.83
2023-05-12T20:16:29.457Z,4.83
2023-05-12T20:18:55.994Z,4.70
2023-05-12T20:21:22.528Z,4.60
2023-05-12T20:23:49.062Z,4.30
2023-05-12T20:26:15.643Z,4.30
2023-05-12T20:28:42.229Z,4.37
2023-05-12T20:31:10.111Z,4.37
2023-05-12T20:33:36.797Z,4.20
2023-05-12T20:36:03.417Z,3.90
2023-05-12T20:38:29.947Z,4.37
2023-05-12T20:40:56.502Z,4.73
2023-05-12T20:43:23.051Z,3.77
2023-05-12T20:45:50.005Z,4.07
2023-05-12T20:48:16.583Z,4.20
2023-05-12T20:50:43.782Z,3.80
2023-05-12T20:53:10.463Z,3.80
2023-05-12T20:55:36.979Z,3.90
2023-05-12T20:58:03.719Z,3.87
2023-05-12T21:00:30.326Z,3.90
2023-05-12T21:02:58.150Z,3.80
2023-05-12T21:05:24.768Z,4.27
2023-05-12T21:07:51.467Z,3.90
2023-05-12T21:10:18.171Z,4.30
2023-05-12T21:12:44.870Z,4.10
2023-05-12T21:15:11.602Z,3.97
2023-05-12T21:17:39.336Z,4.07
2023-05-12T21:20:09.868Z,3.80
2023-05-12T21:22:36.677Z,4.07
2023-05-12T21:25:04.132Z,4.30
2023-05-12T21:27:31.673Z,4.20
2023-05-12T21:29:58.215Z,4.50
2023-05-12T21:32:24.853Z,4.20
2023-05-12T21:34:51.366Z,3.80
2023-05-12T21:37:17.840Z,4.13
2023-05-12T21:39:44.390Z,4.37
2023-05-12T21:42:10.898Z,4.50
2023-05-12T21:44:37.397Z,4.37
2023-05-12T21:47:04.402Z,4.57
2023-05-12T21:49:31.034Z,4.00
2023-05-12T21:51:57.518Z,4.23
2023-05-12T21:54:24.063Z,4.23
2023-05-12T21:56:50.760Z,4.80
2023-05-12T21:59:17.612Z,4.43
2023-05-12T22:01:44.228Z,4.40
2023-05-12T22:04:10.934Z,4.50
2023-05-12T22:06:37.550Z,4.70
2023-05-12T22:09:05.193Z,4.70
2023-05-12T22:11:31.827Z,5.10
2023-05-12T22:13:58.342Z,5.10
2023-05-12T22:16:31.126Z,5.70
2023-05-12T22:19:05.485Z,4.90
2023-05-12T22:21:32.474Z,5.30
2023-05-12T22:23:58.973Z,5.10
2023-05-12T22:26:25.492Z,5.43
2023-05-12T22:28:52.010Z,4.90
2023-05-12T22:31:18.660Z,5.13
2023-05-12T22:33:45.351Z,4.97
2023-05-12T22:36:11.841Z,5.20
2023-05-12T22:38:39.925Z,5.23
2023-05-12T22:41:06.466Z,5.70
2023-05-12T22:43:33.012Z,5.63
2023-05-12T22:45:59.504Z,6.17
2023-05-12T22:48:27.131Z,6.10
2023-05-12T22:50:54.492Z,7.20
2023-05-12T22:53:21.046Z,6.93
2023-05-12T22:55:47.592Z,7.60
2023-05-12T22:58:14.317Z,7.87
2023-05-12T23:00:40.890Z,8.17
2023-05-12T23:03:07.524Z,8.33
2023-05-12T23:05:34.100Z,7.27
2023-05-12T23:08:02.838Z,6.33
2023-05-12T23:10:29.355Z,6.20
2023-05-12T23:12:55.914Z,6.47
2023-05-12T23:15:22.420Z,6.10
2023-05-12T23:17:48.980Z,5.30
2023-05-12T23:20:15.734Z,5.47
2023-05-12T23:22:42.295Z,5.60
2023-05-12T23:25:09.105Z,5.43
2023-05-12T23:27:36.246Z,5.33
2023-05-12T23:30:03.083Z,5.53
2023-05-12T23:32:29.992Z,6.33
2023-05-12T23:34:56.728Z,5.80
2023-05-12T23:37:24.570Z,6.33
2023-05-12T23:39:51.115Z,6.60
2023-05-12T23:42:17.696Z,6.37
2023-05-12T23:44:44.279Z,5.50
2023-05-12T23:47:10.841Z,5.97
2023-05-12T23:49:37.337Z,5.83
2023-05-12T23:52:03.990Z,6.00
2023-05-12T23:54:30.902Z,6.37
2023-05-12T23:56:57.430Z,6.27
2023-05-12T23:59:23.931Z,6.37
